Flight Track Log - Related Links

Times and Time Zones

All times are in EDT time to prevent confusion due to time zone crossing. See the LXJ525 flight status page for this flight to view local times or setup timezone preferences in your user account.

Time Position Orientation Groundspeed Altitude Reporting Facility
EDT Latitude Longitude Course Direction KTS MPH feet Rate Location/Type
Sat 04:44:34 PM 40.8333 -74.1000 252° West 181 208 1,400  Level New York TRACON
Sat 04:45:34 PM 40.8167 -74.1667 252° West 206 237 2,500 2,250 Climbing New York TRACON
Sat 04:46:34 PM 40.8000 -74.2500 255° West 245 282 5,900 1,750 Climbing New York TRACON
Sat 04:47:34 PM 40.8667 -74.2833 339° North 297 342 6,000 50 Climbing New York TRACON
Sat 04:48:34 PM 40.9333 -74.2500 21° North 293 337 6,000  Level New York TRACON
Sat 04:49:34 PM 41.0167 -74.2000 24° Northeast 288 331 6,000  Level New York TRACON
Sat 04:50:34 PM 41.0833 -74.1667 21° North 282 325 6,000  Level New York TRACON
Sat 04:51:34 PM 41.1500 -74.1333 21° North 298 343 6,000  Level New York TRACON
Sat 04:52:34 PM 41.2167 -74.0500 43° Northeast 288 331 6,000  Level New York TRACON
Sat 04:53:34 PM 41.2333 -73.9500 77° East 300 345 6,000 645 Level New York TRACON
Sat 04:54:35 PM 41.2500 -73.8333 79° East 306 352 7,300 1,388 Climbing New York TRACON
Sat 04:55:35 PM 41.2667 -73.7167 79° East 309 356 8,800 816 Climbing New York TRACON
Sat 04:56:40 PM 41.2833 -73.6000 79° East 316 364 9,000 96 Climbing New York TRACON
Sat 04:57:40 PM 41.3167 -73.5000 66° East 313 360 9,000  Level New York TRACON
Sat 04:58:35 PM 41.3500 -73.4000 66° East 307 353 9,000  Level New York TRACON
Sat 05:00:42 PM 41.4164 -73.1931 67° East 297 342 9,000  Level Boston Center
Sat 05:01:43 PM 41.4544 -73.0908 64° Northeast 302 348 9,000 49 Level Boston Center
Sat 05:02:44 PM 41.4864 -72.9806 69° East 313 360 9,100  Climbing Boston Center
Sat 05:03:44 PM 41.4931 -72.8669 85° East 317 365 9,000 -55 Descending Boston Center
Sat 05:04:33 PM 41.4997 -72.7700 85° East 319 367 9,000  Level Boston Center
Sat 05:05:34 PM 41.5042 -72.6453 87° East 323 372 9,000 -441 Level Boston Center
Sat 05:06:49 PM 41.5147 -72.5094 84° East 305 351 8,000 -927 Descending Boston Center
Sat 05:07:37 PM 41.5231 -72.4094 84° East 316 364 7,100 -1,046 Descending Boston Center
Sat 05:08:38 PM 41.4917 -72.3097 113° Southeast 301 346 6,100 -984 Descending Boston Center
Sat 05:09:39 PM 41.4394 -72.2297 131° Southeast 285 328 5,100 -1,328 Descending Boston Center
Sat 05:10:40 PM 41.4122 -72.1328 110° East 275 316 3,400 -1,603 Descending Boston Center
Sat 05:11:35 PM 41.3994 -72.0472 101° East 261 300 2,000 -1,200 Descending Boston Center
Sat 05:12:35 PM 41.3742 -72.0058 129° Southeast 171 197 1,100 -893 Descending Boston Center
Sat 05:13:36 PM 41.3472 -72.0336 218° Southwest 129 148 200 -885 Descending Boston Center

Login

Don't have an account? Register now (free) for customized features, flight alerts, and more!